Time;durP1;ratioP1;P1;durP2;ratioP2;P2;SDS_P1;SDS_P2;PMS_P1;PMS_P2;Temp;Humidity;BMP_temperature;BMP_pressure;BME280_temperature;BME280_humidity;BME280_pressure;Samples;Min_cycle;Max_cycle;Signal;HPM_P1;HPM_P2
2021/08/22 00:00:41;;;;;;;19.52;16.75;;;;;;;18.17;94.76;100945.63;4979305;28;20049;-81
2021/08/22 00:03:06;;;;;;;18.23;16.30;;;;;;;18.05;95.19;100942.72;4974872;28;20042;-83
2021/08/22 00:05:32;;;;;;;19.48;17.42;;;;;;;17.97;95.77;100942.94;4973138;28;20502;-82
2021/08/22 00:07:57;;;;;;;20.55;17.02;;;;;;;17.90;96.54;100944.81;4977263;28;20121;-83
2021/08/22 00:10:22;;;;;;;19.25;17.10;;;;;;;17.84;97.65;100937.47;4958369;28;20272;-82
2021/08/22 00:12:48;;;;;;;19.80;17.85;;;;;;;17.79;98.12;100933.53;4980283;28;20088;-82
2021/08/22 00:15:13;;;;;;;19.48;17.48;;;;;;;17.75;98.75;100943.13;4980314;28;20038;-83
2021/08/22 00:17:39;;;;;;;21.30;18.88;;;;;;;17.71;99.63;100930.97;4979670;28;20104;-82
2021/08/22 00:20:06;;;;;;;20.38;17.98;;;;;;;17.65;100.00;100923.69;4995448;28;20049;-82
2021/08/22 00:22:31;;;;;;;21.67;19.38;;;;;;;17.60;100.00;100924.28;4976217;28;20042;-83
2021/08/22 00:24:56;;;;;;;22.60;20.05;;;;;;;17.64;100.00;100919.31;4978176;28;20093;-81
2021/08/22 00:27:22;;;;;;;23.90;21.25;;;;;;;17.59;100.00;100914.50;4981664;28;20043;-84
2021/08/22 00:29:47;;;;;;;26.67;20.85;;;;;;;17.56;100.00;100911.34;4977687;28;20053;-82
2021/08/22 00:32:13;;;;;;;26.70;21.20;;;;;;;17.54;100.00;100902.59;4975759;28;20085;-82
2021/08/22 00:34:38;;;;;;;25.65;22.95;;;;;;;17.57;100.00;100897.56;4979481;28;20061;-84
2021/08/22 00:37:04;;;;;;;25.92;22.65;;;;;;;17.57;100.00;100900.28;4978442;28;20180;-82
2021/08/22 00:39:29;;;;;;;25.52;22.83;;;;;;;17.54;100.00;100891.72;4978929;28;20108;-82
2021/08/22 00:41:55;;;;;;;28.02;25.00;;;;;;;17.51;100.00;100884.84;4976995;28;20041;-84
2021/08/22 00:44:22;;;;;;;28.52;25.42;;;;;;;17.45;100.00;100882.13;4963663;28;20232;-83
2021/08/22 00:46:49;;;;;;;33.33;27.58;;;;;;;17.40;100.00;100881.91;4979710;28;20162;-82
2021/08/22 00:49:15;;;;;;;31.95;27.77;;;;;;;17.35;100.00;100872.53;4980095;28;20042;-83
2021/08/22 00:51:41;;;;;;;33.60;29.25;;;;;;;17.32;100.00;100874.78;4977593;28;20057;-82
2021/08/22 00:54:07;;;;;;;33.10;28.30;;;;;;;17.30;100.00;100872.31;4975061;28;20407;-82
2021/08/22 00:56:33;;;;;;;37.72;29.40;;;;;;;17.25;100.00;100877.50;4979576;28;20100;-82
2021/08/22 00:59:11;;;;;;;38.22;31.15;;;;;;;17.23;100.00;100876.88;4976290;28;20065;-81
2021/08/22 01:01:38;;;;;;;34.45;30.17;;;;;;;17.20;100.00;100879.16;4970456;28;20484;-82
2021/08/22 01:04:20;;;;;;;40.42;32.00;;;;;;;17.23;100.00;100882.28;4969522;28;20112;-81
2021/08/22 01:06:58;;;;;;;35.65;30.45;;;;;;;17.20;100.00;100881.88;4984523;28;20046;-83
2021/08/22 01:09:37;;;;;;;36.60;30.67;;;;;;;17.19;100.00;100878.34;4971794;28;20519;-82
2021/08/22 01:12:03;;;;;;;;;;;;;;;17.21;100.00;100881.69;4974567;28;20066;-83
2021/08/22 01:14:35;;;;;;;39.38;33.35;;;;;;;17.13;100.00;100887.28;4977337;28;19981;-82
2021/08/22 01:17:02;;;;;;;42.42;34.65;;;;;;;17.14;100.00;100891.66;4976454;28;20050;-83
2021/08/22 01:20:01;;;;;;;42.28;36.70;;;;;;;17.15;100.00;100877.09;4994499;28;20123;-82
2021/08/22 01:22:27;;;;;;;43.53;36.88;;;;;;;17.17;100.00;100872.28;4977133;28;20113;-81
2021/08/22 01:24:55;;;;;;;44.30;38.63;;;;;;;17.16;100.00;100872.50;4980485;28;20060;-81
2021/08/22 01:27:21;;;;;;;47.25;37.70;;;;;;;17.18;100.00;100871.25;4985127;28;20042;-82
2021/08/22 01:29:53;;;;;;;45.40;36.13;;;;;;;17.19;100.00;100875.63;4984697;28;20116;-82
2021/08/22 01:32:18;;;;;;;42.50;34.70;;;;;;;17.20;100.00;100862.91;4986589;28;20042;-82
2021/08/22 01:34:45;;;;;;;44.13;34.78;;;;;;;17.16;100.00;100867.91;4987215;28;20641;-81
2021/08/22 01:37:11;;;;;;;41.67;35.13;;;;;;;17.11;100.00;100870.38;4990024;28;20134;-81
2021/08/22 01:39:39;;;;;;;44.10;37.05;;;;;;;17.10;100.00;100885.00;4989412;28;20046;-83
2021/08/22 01:42:09;;;;;;;42.53;34.83;;;;;;;17.12;100.00;100891.06;4987605;28;20035;-82
2021/08/22 01:44:37;;;;;;;47.47;38.95;;;;;;;17.12;100.00;100900.03;4986320;28;20109;-81
2021/08/22 01:47:07;;;;;;;45.28;37.78;;;;;;;17.09;100.00;100894.16;5000750;28;20084;-85
2021/08/22 01:49:34;;;;;;;44.22;37.67;;;;;;;17.08;100.00;100897.91;4988388;28;20073;-84
2021/08/22 01:52:00;;;;;;;44.53;38.25;;;;;;;17.08;100.00;100887.06;4989163;28;20038;-82
2021/08/22 01:54:26;;;;;;;47.00;38.95;;;;;;;17.10;100.00;100893.97;5001992;28;20496;-82
2021/08/22 01:56:51;;;;;;;46.17;36.67;;;;;;;17.10;100.00;100882.28;4988145;28;20061;-82
2021/08/22 01:59:16;;;;;;;44.95;36.85;;;;;;;17.09;100.00;100888.72;4982122;28;20053;-82
2021/08/22 02:01:42;;;;;;;46.47;37.70;;;;;;;17.12;100.00;100888.34;4988032;28;20038;-84
2021/08/22 02:04:13;;;;;;;50.42;38.60;;;;;;;17.15;100.00;100893.34;4971645;28;20042;-83
2021/08/22 02:07:08;;;;;;;48.65;38.33;;;;;;;17.14;100.00;100889.78;4986794;28;20045;-83
2021/08/22 02:09:41;;;;;;;49.58;40.05;;;;;;;17.14;100.00;100888.97;4997400;28;20050;-82
2021/08/22 02:12:15;;;;;;;51.22;40.60;;;;;;;17.14;100.00;100886.25;4999683;28;20042;-83
2021/08/22 02:14:45;;;;;;;51.03;38.67;;;;;;;17.13;100.00;100895.44;4978602;28;20046;-85
2021/08/22 02:17:12;;;;;;;50.55;40.72;;;;;;;17.13;100.00;100890.84;4988474;28;20529;-83
2021/08/22 02:19:39;;;;;;;52.10;40.42;;;;;;;17.16;100.00;100884.16;4986616;28;20050;-84
2021/08/22 02:22:05;;;;;;;53.60;42.10;;;;;;;17.18;100.00;100876.69;4986232;28;20043;-82
2021/08/22 02:24:30;;;;;;;54.55;41.78;;;;;;;17.17;100.00;100874.97;4985270;28;20400;-84
2021/08/22 02:26:56;;;;;;;55.55;42.53;;;;;;;17.19;100.00;100886.47;4990858;28;20709;-83
2021/08/22 02:29:21;;;;;;;54.67;42.63;;;;;;;17.16;100.00;100886.88;4986501;28;20038;-84
2021/08/22 02:31:47;;;;;;;58.88;44.60;;;;;;;17.19;100.00;100883.75;4978337;28;20078;-83
2021/08/22 02:34:12;;;;;;;58.60;42.55;;;;;;;17.20;100.00;100885.41;4986265;28;20376;-85
2021/08/22 02:36:37;;;;;;;57.10;44.80;;;;;;;17.20;100.00;100880.00;4987247;28;20396;-84
2021/08/22 02:39:03;;;;;;;57.00;43.13;;;;;;;17.24;100.00;100881.28;4988366;28;20126;-83
2021/08/22 02:41:29;;;;;;;50.63;38.17;;;;;;;17.22;100.00;100886.06;4986790;28;20126;-84
2021/08/22 02:43:54;;;;;;;50.20;40.72;;;;;;;17.25;100.00;100884.81;4981635;28;20050;-83
2021/08/22 02:46:20;;;;;;;49.75;38.03;;;;;;;17.29;100.00;100883.34;4985401;28;20053;-83
2021/08/22 02:48:46;;;;;;;50.80;37.10;;;;;;;17.31;100.00;100875.84;4987533;28;20673;-82
2021/08/22 02:51:11;;;;;;;49.33;36.30;;;;;;;17.28;100.00;100868.97;4987386;28;20046;-81
2021/08/22 02:53:36;;;;;;;45.67;33.92;;;;;;;17.27;100.00;100861.03;4981694;28;20487;-84
2021/08/22 02:56:02;;;;;;;42.05;32.90;;;;;;;17.31;100.00;100865.81;4987815;28;20071;-81
2021/08/22 02:58:27;;;;;;;42.95;33.42;;;;;;;17.33;100.00;100866.47;4990647;28;20130;-81
2021/08/22 03:00:53;;;;;;;41.50;33.83;;;;;;;17.36;100.00;100863.34;4986987;28;20039;-84
2021/08/22 03:03:18;;;;;;;39.55;30.30;;;;;;;17.35;100.00;100853.53;4984533;28;20050;-85
2021/08/22 03:05:43;;;;;;;41.83;31.45;;;;;;;17.34;100.00;100864.59;4970686;28;20132;-81
2021/08/22 03:08:09;;;;;;;40.60;31.67;;;;;;;17.34;100.00;100860.00;4986226;28;20384;-82
2021/08/22 03:10:34;;;;;;;39.38;31.15;;;;;;;17.36;100.00;100867.94;4986492;28;20529;-82
2021/08/22 03:13:00;;;;;;;41.80;31.65;;;;;;;17.34;100.00;100862.69;4983647;28;20050;-83
2021/08/22 03:15:25;;;;;;;44.55;31.90;;;;;;;17.37;100.00;100859.56;4986038;28;20096;-82
2021/08/22 03:17:50;;;;;;;45.67;33.10;;;;;;;17.33;100.00;100869.19;4986224;28;20035;-84
2021/08/22 03:20:16;;;;;;;45.50;34.42;;;;;;;17.35;100.00;100864.41;4986116;28;20066;-82
2021/08/22 03:22:45;;;;;;;45.17;32.95;;;;;;;17.33;100.00;100863.75;4972575;28;20038;-85
2021/08/22 03:25:12;;;;;;;47.95;36.05;;;;;;;17.36;100.00;100867.94;4986115;28;20164;-82
2021/08/22 03:27:38;;;;;;;42.95;34.15;;;;;;;17.35;100.00;100856.25;4979285;28;20097;-83
2021/08/22 03:30:05;;;;;;;46.42;34.90;;;;;;;17.35;100.00;100871.69;4982910;28;20102;-81
2021/08/22 03:32:30;;;;;;;43.58;33.78;;;;;;;17.35;100.00;100871.69;4949864;28;20097;-82
2021/08/22 03:34:58;;;;;;;48.67;33.90;;;;;;;17.37;100.00;100872.31;4976322;28;20464;-81
2021/08/22 03:37:24;;;;;;;46.23;32.83;;;;;;;17.42;100.00;100868.97;4960708;28;20097;-82
2021/08/22 03:39:50;;;;;;;49.45;34.65;;;;;;;17.41;100.00;100867.31;4961830;28;20042;-85
2021/08/22 03:42:15;;;;;;;47.75;33.75;;;;;;;17.35;100.00;100867.09;4965022;28;20034;-81
2021/08/22 03:44:41;;;;;;;47.22;34.13;;;;;;;17.34;100.00;100865.41;4964735;28;20053;-82
2021/08/22 03:47:06;;;;;;;44.47;34.55;;;;;;;17.36;100.00;100873.34;4963018;28;20488;-82
2021/08/22 03:49:33;;;;;;;47.65;34.85;;;;;;;17.38;100.00;100871.28;4969225;28;20035;-83
2021/08/22 03:51:58;;;;;;;46.40;32.00;;;;;;;17.37;100.00;100867.72;4985748;28;20491;-84
2021/08/22 03:54:24;;;;;;;54.38;36.42;;;;;;;17.36;100.00;100868.75;4984863;28;20085;-82
2021/08/22 03:56:49;;;;;;;47.72;35.60;;;;;;;17.39;100.00;100866.69;4984260;28;20034;-85
2021/08/22 03:59:14;;;;;;;45.17;34.33;;;;;;;17.34;100.00;100870.84;4984874;28;20432;-83
2021/08/22 04:01:40;;;;;;;47.33;34.25;;;;;;;17.34;100.00;100870.84;4978687;28;20041;-83
2021/08/22 04:04:06;;;;;;;48.00;34.47;;;;;;;17.36;100.00;100871.47;4972871;28;20389;-82
2021/08/22 04:06:32;;;;;;;45.85;34.42;;;;;;;17.35;100.00;100872.53;4962906;28;20054;-81
2021/08/22 04:09:00;;;;;;;48.53;33.08;;;;;;;17.34;100.00;100872.72;4964237;28;20065;-84
2021/08/22 04:11:27;;;;;;;43.00;32.95;;;;;;;17.37;100.00;100873.13;4981977;28;20240;-81
2021/08/22 04:13:52;;;;;;;45.80;34.20;;;;;;;17.36;100.00;100870.66;4958682;28;20117;-82
2021/08/22 04:16:17;;;;;;;45.05;34.03;;;;;;;17.39;100.00;100869.41;4941616;28;20519;-82
2021/08/22 04:18:43;;;;;;;45.92;33.47;;;;;;;17.33;100.00;100876.50;4959020;28;20058;-84
2021/08/22 04:21:08;;;;;;;44.10;32.13;;;;;;;17.31;100.00;100873.97;4960109;28;20043;-81
2021/08/22 04:23:33;;;;;;;43.85;31.38;;;;;;;17.32;100.00;100874.78;4959234;28;20325;-82
2021/08/22 04:25:59;;;;;;;41.88;30.70;;;;;;;17.29;100.00;100872.50;4960718;28;20045;-84
2021/08/22 04:28:24;;;;;;;39.10;29.65;;;;;;;17.26;100.00;100878.34;4940541;28;20070;-85
2021/08/22 04:30:50;;;;;;;41.33;28.60;;;;;;;17.24;100.00;100883.97;4961467;28;20063;-84
2021/08/22 04:33:15;;;;;;;39.63;28.67;;;;;;;17.27;100.00;100877.31;4960819;28;20043;-82
2021/08/22 04:35:41;;;;;;;39.00;28.55;;;;;;;17.24;100.00;100875.03;4953341;28;20104;-84
2021/08/22 04:38:06;;;;;;;38.05;27.30;;;;;;;17.22;100.00;100880.63;4961648;28;20382;-83
2021/08/22 04:40:32;;;;;;;39.05;27.90;;;;;;;17.24;100.00;100878.56;4960280;28;20035;-81
2021/08/22 04:42:57;;;;;;;39.70;26.83;;;;;;;17.19;100.00;100872.91;4960371;28;20514;-82
2021/08/22 04:45:23;;;;;;;36.80;25.27;;;;;;;17.20;100.00;100885.41;4954992;28;20074;-81
2021/08/22 04:47:48;;;;;;;39.53;28.55;;;;;;;17.21;100.00;100883.56;4972491;28;20081;-83
2021/08/22 04:50:13;;;;;;;40.40;27.17;;;;;;;17.23;100.00;100885.00;4982046;28;20462;-81
2021/08/22 04:52:39;;;;;;;41.30;28.42;;;;;;;17.24;100.00;100886.69;4978796;28;20057;-84
2021/08/22 04:55:05;;;;;;;39.50;27.70;;;;;;;17.22;100.00;100887.94;4980927;28;20403;-83
2021/08/22 04:57:31;;;;;;;40.40;26.17;;;;;;;17.18;100.00;100898.38;4962886;28;20515;-82
2021/08/22 04:59:57;;;;;;;43.00;30.08;;;;;;;17.17;100.00;100885.00;4961631;28;20569;-82
2021/08/22 05:02:22;;;;;;;42.30;28.25;;;;;;;17.16;100.00;100895.00;4956033;28;20043;-83
2021/08/22 05:04:47;;;;;;;49.53;28.80;;;;;;;17.15;100.00;100901.50;4962890;28;20105;-82
2021/08/22 05:07:13;;;;;;;43.90;29.25;;;;;;;17.13;100.00;100903.56;4939376;28;20039;-83
2021/08/22 05:09:38;;;;;;;44.42;29.83;;;;;;;17.19;100.00;100904.63;4958426;28;20046;-84
2021/08/22 05:12:04;;;;;;;42.55;29.08;;;;;;;17.12;100.00;100908.16;4973689;28;20492;-82
2021/08/22 05:14:33;;;;;;;46.50;28.95;;;;;;;17.10;100.00;100906.69;4960880;28;20122;-84
2021/08/22 05:17:00;;;;;;;48.90;30.55;;;;;;;17.10;100.00;100912.09;4962328;28;20042;-83
2021/08/22 05:19:25;;;;;;;48.13;31.38;;;;;;;17.05;100.00;100910.00;4957815;28;20125;-82
2021/08/22 05:21:51;;;;;;;47.60;30.80;;;;;;;17.07;100.00;100909.81;4973875;28;20049;-82
2021/08/22 05:24:16;;;;;;;47.60;31.45;;;;;;;17.08;100.00;100911.47;4959381;28;20050;-85
2021/08/22 05:26:42;;;;;;;45.58;30.98;;;;;;;17.09;100.00;100913.13;4960639;28;20054;-84
2021/08/22 05:29:07;;;;;;;44.25;29.83;;;;;;;17.10;100.00;100909.41;4961173;28;20051;-82
2021/08/22 05:31:33;;;;;;;43.05;30.05;;;;;;;17.15;100.00;100920.47;4954485;28;20411;-84
2021/08/22 05:33:58;;;;;;;45.92;30.15;;;;;;;17.15;100.00;100917.75;4956559;28;20046;-83
2021/08/22 05:36:24;;;;;;;49.00;29.13;;;;;;;17.15;100.00;100917.75;4957840;28;20055;-83
2021/08/22 05:38:52;;;;;;;45.63;30.33;;;;;;;17.18;100.00;100920.06;4962105;28;20249;-83
2021/08/22 05:41:18;;;;;;;48.85;30.95;;;;;;;17.22;100.00;100923.19;4961811;28;20047;-82
2021/08/22 05:43:43;;;;;;;46.58;29.67;;;;;;;17.20;100.00;100922.56;4937778;28;20042;-83
2021/08/22 05:46:09;;;;;;;48.03;31.60;;;;;;;17.20;100.00;100914.41;4957989;28;20043;-83
2021/08/22 05:48:36;;;;;;;51.42;32.17;;;;;;;17.19;100.00;100910.03;4953465;28;20432;-85
2021/08/22 05:51:01;;;;;;;57.60;32.55;;;;;;;17.14;100.00;100911.47;4961383;28;20413;-84
2021/08/22 05:53:28;;;;;;;55.45;34.30;;;;;;;17.13;100.00;100928.78;4960320;28;20802;-82
2021/08/22 05:55:55;;;;;;;50.35;31.95;;;;;;;17.10;100.00;100928.38;4959896;28;20046;-82
2021/08/22 05:58:21;;;;;;;51.35;30.98;;;;;;;17.12;100.00;100929.84;4957936;28;20075;-84
2021/08/22 06:00:46;;;;;;;52.40;34.97;;;;;;;17.18;100.00;100933.63;4973144;28;20086;-81
2021/08/22 06:03:12;;;;;;;53.70;33.10;;;;;;;17.23;100.00;100941.94;4959069;28;20394;-85
2021/08/22 06:05:37;;;;;;;56.58;34.20;;;;;;;17.25;100.00;100942.59;4956778;28;20049;-83
2021/08/22 06:08:03;;;;;;;55.55;32.90;;;;;;;17.25;100.00;100939.88;4974925;28;20540;-84
2021/08/22 06:10:28;;;;;;;59.20;32.47;;;;;;;17.27;100.00;100943.22;4960374;28;20396;-83
2021/08/22 06:12:53;;;;;;;50.72;32.17;;;;;;;17.23;100.00;100941.94;4936467;28;20054;-84
2021/08/22 06:15:19;;;;;;;51.55;33.08;;;;;;;17.23;100.00;100952.81;4954912;28;20062;-83
2021/08/22 06:17:44;;;;;;;52.88;32.60;;;;;;;17.27;100.00;100945.94;4960697;28;20697;-82
2021/08/22 06:20:11;;;;;;;52.05;32.08;;;;;;;17.25;100.00;100939.88;4943482;28;20138;-84
2021/08/22 06:22:37;;;;;;;53.03;33.95;;;;;;;17.28;100.00;100953.03;4944680;28;20090;-84
2021/08/22 06:25:02;;;;;;;52.30;31.95;;;;;;;17.27;100.00;100947.84;4962950;28;20172;-86
2021/08/22 06:27:28;;;;;;;55.92;33.72;;;;;;;17.28;100.00;100954.91;4959538;28;20039;-83
2021/08/22 06:29:53;;;;;;;52.97;33.28;;;;;;;17.28;100.00;100947.59;4961168;28;20061;-85
2021/08/22 06:32:18;;;;;;;53.28;32.58;;;;;;;17.29;100.00;100948.44;4959080;28;20461;-83
2021/08/22 06:34:44;;;;;;;52.85;31.85;;;;;;;17.28;100.00;100953.03;4964044;28;20042;-83
2021/08/22 06:37:09;;;;;;;53.95;34.35;;;;;;;17.30;100.00;100944.72;4962364;28;20042;-88
2021/08/22 06:39:40;;;;;;;55.47;33.70;;;;;;;17.27;100.00;100939.69;4962735;28;20059;-85
2021/08/22 06:42:06;;;;;;;48.08;33.75;;;;;;;17.25;100.00;100948.03;4968546;28;20039;-86
2021/08/22 06:44:33;;;;;;;55.22;33.10;;;;;;;17.29;100.00;100946.59;4949935;28;20137;-84
2021/08/22 06:46:58;;;;;;;50.67;33.35;;;;;;;17.31;100.00;100938.22;4973106;28;20042;-85
2021/08/22 06:49:23;;;;;;;51.47;31.65;;;;;;;17.33;100.00;100945.13;4981243;28;20038;-85
2021/08/22 06:51:49;;;;;;;48.08;32.05;;;;;;;17.40;100.00;100941.59;4972251;28;20048;-84
2021/08/22 06:54:14;;;;;;;47.72;32.28;;;;;;;17.50;100.00;100945.59;4987123;28;20070;-85
2021/08/22 06:56:39;;;;;;;48.25;31.38;;;;;;;17.62;100.00;100936.84;4978664;28;20075;-84
2021/08/22 06:59:05;;;;;;;41.28;28.85;;;;;;;17.65;100.00;100947.28;4992218;28;20048;-85
2021/08/22 07:01:30;;;;;;;44.10;29.10;;;;;;;17.71;100.00;100949.16;4984985;28;20038;-87
2021/08/22 07:03:55;;;;;;;44.42;30.67;;;;;;;17.75;100.00;100948.53;4986553;28;20133;-85
2021/08/22 07:06:21;;;;;;;41.25;28.55;;;;;;;17.88;100.00;100953.16;4978976;28;20043;-85
2021/08/22 07:08:46;;;;;;;38.95;30.00;;;;;;;17.93;100.00;100941.69;4980247;28;20058;-84
2021/08/22 07:11:11;;;;;;;41.22;28.92;;;;;;;17.95;100.00;100945.88;5002716;28;20607;-85
2021/08/22 07:13:37;;;;;;;40.40;28.30;;;;;;;18.00;100.00;100946.06;4993152;28;20093;-84
2021/08/22 07:16:02;;;;;;;42.25;30.10;;;;;;;17.99;100.00;100943.56;4988217;28;20041;-85
2021/08/22 07:18:28;;;;;;;41.42;28.63;;;;;;;18.00;100.00;100948.75;4987639;28;20101;-86
2021/08/22 07:20:53;;;;;;;40.42;26.92;;;;;;;18.05;100.00;100937.28;4973323;28;20049;-84
2021/08/22 07:23:18;;;;;;;39.25;25.65;;;;;;;18.08;100.00;100950.44;4967214;28;20034;-86
2021/08/22 07:25:44;;;;;;;38.85;27.13;;;;;;;18.13;100.00;100950.66;4992695;28;20042;-85
2021/08/22 07:28:09;;;;;;;39.20;28.42;;;;;;;18.21;100.00;100953.16;4984078;28;20058;-86
2021/08/22 07:30:35;;;;;;;41.63;28.02;;;;;;;18.18;100.00;100959.00;4984323;28;20066;-83
2021/08/22 07:33:02;;;;;;;43.10;28.55;;;;;;;18.07;100.00;100951.50;4981961;28;20406;-86
2021/08/22 07:35:28;;;;;;;48.05;29.85;;;;;;;18.06;100.00;100951.69;5016727;28;20053;-87
2021/08/22 07:37:53;;;;;;;48.70;30.02;;;;;;;18.06;100.00;100960.66;4982119;28;20038;-84
2021/08/22 07:40:19;;;;;;;45.75;30.80;;;;;;;18.02;100.00;100959.44;4968890;28;20046;-85
2021/08/22 07:42:44;;;;;;;46.83;30.25;;;;;;;18.02;100.00;100960.25;4979363;28;20070;-85
2021/08/22 07:45:10;;;;;;;47.88;31.30;;;;;;;18.03;100.00;100967.34;4986188;28;20178;-85
2021/08/22 07:47:35;;;;;;;50.50;32.33;;;;;;;18.11;100.00;100962.78;4965743;28;20031;-86
2021/08/22 07:50:01;;;;;;;49.95;34.20;;;;;;;18.16;100.00;100977.38;4976647;28;20539;-86
2021/08/22 07:52:26;;;;;;;55.40;36.33;;;;;;;18.14;100.00;100979.47;4983466;28;20463;-87
2021/08/22 07:54:52;;;;;;;55.70;35.90;;;;;;;18.13;100.00;100976.97;4979362;28;20067;-84
2021/08/22 07:57:17;;;;;;;57.45;36.53;;;;;;;18.06;100.00;100976.97;4985560;28;20046;-84
2021/08/22 07:59:43;;;;;;;57.70;36.05;;;;;;;18.05;100.00;100983.44;4978964;28;20053;-87
2021/08/22 08:02:09;;;;;;;63.30;37.38;;;;;;;18.00;100.00;100983.22;4985703;28;20038;-87
2021/08/22 08:04:34;;;;;;;63.17;38.13;;;;;;;17.96;100.00;100984.72;4982609;28;20476;-84
2021/08/22 08:06:59;;;;;;;59.95;36.33;;;;;;;17.98;100.00;100991.59;4985635;28;20101;-86
2021/08/22 08:09:25;;;;;;;63.85;38.85;;;;;;;18.02;100.00;100998.28;5000181;28;20038;-83
2021/08/22 08:11:50;;;;;;;64.10;38.20;;;;;;;18.04;100.00;100993.47;4968982;28;20050;-85
2021/08/22 08:14:16;;;;;;;60.97;36.65;;;;;;;18.06;100.00;100981.56;4971686;28;20442;-86
2021/08/22 08:16:41;;;;;;;59.63;36.15;;;;;;;18.00;100.00;100989.50;4989070;28;20042;-84
2021/08/22 08:19:06;;;;;;;60.60;38.38;;;;;;;18.02;100.00;100992.00;4993208;28;20488;-83
2021/08/22 08:21:32;;;;;;;59.67;36.13;;;;;;;18.02;100.00;100998.28;4975851;28;20046;-85
2021/08/22 08:23:57;;;;;;;66.88;40.70;;;;;;;18.09;100.00;100998.25;5012406;28;20046;-84
2021/08/22 08:26:22;;;;;;;66.57;38.92;;;;;;;18.05;100.00;100997.03;4997118;28;20046;-84
2021/08/22 08:28:48;;;;;;;69.78;41.45;;;;;;;18.05;100.00;101002.47;4980651;28;20510;-86
2021/08/22 08:31:13;;;;;;;65.13;38.53;;;;;;;18.01;100.00;101002.03;4982179;28;20046;-85
2021/08/22 08:33:39;;;;;;;66.78;37.83;;;;;;;18.00;100.00;101002.25;4980431;28;20045;-85
2021/08/22 08:36:05;;;;;;;65.68;39.45;;;;;;;17.98;100.00;100999.75;4980455;28;20042;-86
2021/08/22 08:38:30;;;;;;;68.30;40.30;;;;;;;18.01;100.00;101001.19;4976832;28;20045;-83
2021/08/22 08:40:56;;;;;;;73.00;40.03;;;;;;;17.92;100.00;101002.44;4973283;28;20035;-85
2021/08/22 08:43:23;;;;;;;77.78;44.35;;;;;;;17.90;100.00;100999.94;4963635;28;20038;-85
2021/08/22 08:46:18;;;;;;;73.85;41.60;;;;;;;17.91;100.00;100998.06;4981714;28;20394;-85
2021/08/22 08:48:54;;;;;;;71.10;42.95;;;;;;;17.85;100.00;100994.28;4966093;28;20061;-85
2021/08/22 08:51:28;;;;;;;73.22;43.90;;;;;;;17.80;100.00;101005.75;4979352;28;20045;-86
2021/08/22 08:53:57;;;;;;;73.30;42.45;;;;;;;17.86;100.00;101011.41;4964792;28;20054;-83
2021/08/22 08:56:23;;;;;;;;;;;;;;;17.96;100.00;101001.81;4960196;28;20082;-84
2021/08/22 08:58:48;;;;;;;69.30;42.65;;;;;;;18.03;100.00;101012.69;4985884;28;19949;-84
2021/08/22 09:01:14;;;;;;;68.00;40.88;;;;;;;18.01;100.00;101007.47;4986184;28;20127;-85
2021/08/22 09:04:03;;;;;;;64.82;42.40;;;;;;;18.15;100.00;101013.72;4999077;28;20073;-83
2021/08/22 09:07:05;;;;;;;56.67;38.03;;;;;;;18.22;100.00;101005.59;4981237;28;20034;-83
2021/08/22 09:10:11;;;;;;;52.65;37.35;;;;;;;18.30;100.00;101015.38;4980483;28;20045;-82
2021/08/22 09:13:14;;;;;;;55.38;37.85;;;;;;;18.35;100.00;101007.44;4981548;28;23437;-82
2021/08/22 09:16:19;;;;;;;53.67;36.10;;;;;;;18.38;100.00;100998.88;4983808;28;20066;-84
2021/08/22 09:19:38;;;;;;;52.33;35.88;;;;;;;18.51;100.00;101000.75;4979389;28;20050;-84
2021/08/22 09:22:26;;;;;;;47.80;33.55;;;;;;;18.68;100.00;100991.13;4926312;28;20048;-84
2021/08/22 09:25:19;;;;;;;42.05;29.17;;;;;;;18.79;100.00;100981.47;4988122;28;20143;-83
2021/08/22 09:28:22;;;;;;;37.22;26.92;;;;;;;18.90;100.00;100994.41;4975465;28;20039;-83
2021/08/22 09:31:24;;;;;;;35.50;25.25;;;;;;;18.90;97.94;100991.69;4982763;28;20531;-83
2021/08/22 09:34:08;;;;;;;37.25;26.20;;;;;;;18.91;98.12;100985.22;4982396;28;20045;-85
2021/08/22 09:37:05;;;;;;;32.40;26.52;;;;;;;19.07;99.09;100989.31;4983247;28;20034;-83
2021/08/22 09:40:08;;;;;;;33.85;25.02;;;;;;;19.12;97.46;100990.34;4979262;28;20310;-85
2021/08/22 09:43:10;;;;;;;31.88;23.73;;;;;;;19.17;96.13;100987.81;4996137;28;20125;-84
2021/08/22 09:46:07;;;;;;;27.88;21.40;;;;;;;19.29;96.90;100978.97;4985195;28;20492;-84
2021/08/22 09:49:10;;;;;;;30.15;21.05;;;;;;;19.43;95.89;100987.91;4983696;28;20475;-86
2021/08/22 09:51:47;;;;;;;28.92;21.83;;;;;;;19.54;93.59;100985.34;4975979;28;20066;-82
2021/08/22 09:54:44;;;;;;;27.02;21.35;;;;;;;19.61;94.04;100990.72;4986294;28;20046;-83
2021/08/22 09:57:35;;;;;;;27.90;21.23;;;;;;;19.61;92.94;100979.84;4987994;28;20073;-85
2021/08/22 10:00:18;;;;;;;27.85;20.83;;;;;;;19.66;92.13;100992.84;4996812;28;20073;-84
2021/08/22 10:03:20;;;;;;;27.15;20.80;;;;;;;19.70;91.98;100983.16;4986963;28;20038;-82
2021/08/22 10:05:46;;;;;;;25.10;19.73;;;;;;;19.72;92.66;100987.34;4984352;28;20038;-85
2021/08/22 10:08:17;;;;;;;24.40;20.98;;;;;;;19.74;91.68;100992.56;4979422;28;20522;-86
2021/08/22 10:10:46;;;;;;;22.05;18.65;;;;;;;19.67;91.10;100983.59;4988101;28;20088;-82
2021/08/22 10:13:11;;;;;;;;;;;;;;;19.71;92.13;100984.81;4988348;28;20038;-87
2021/08/22 10:15:47;;;;;;;21.87;17.43;;;;;;;19.71;92.33;100984.81;4980992;28;19924;-82
2021/08/22 10:18:21;;;;;;;23.50;18.95;;;;;;;19.67;91.18;100983.59;4986731;28;21002;-83
2021/08/22 10:20:47;;;;;;;27.00;20.85;;;;;;;19.71;92.46;100979.38;4984210;28;20050;-83
2021/08/22 10:23:31;;;;;;;22.83;18.50;;;;;;;19.84;91.78;100982.84;4986121;28;20041;-82
2021/08/22 10:25:56;;;;;;;25.70;19.40;;;;;;;19.79;90.51;100990.00;4986084;28;20145;-83
2021/08/22 10:29:05;;;;;;;23.25;19.95;;;;;;;19.83;92.54;100985.81;4970732;28;20038;-83
2021/08/22 10:31:48;;;;;;;23.90;19.60;;;;;;;19.86;91.94;100971.75;4983171;28;20509;-84
2021/08/22 10:34:14;;;;;;;21.48;18.98;;;;;;;19.87;92.40;100980.75;4984519;28;20040;-83
2021/08/22 10:36:40;;;;;;;20.17;16.98;;;;;;;19.85;90.88;100986.38;4988730;28;20050;-85
2021/08/22 10:41:52;;;;;;;20.70;16.83;;;;;;;19.80;90.14;100991.69;4972017;28;20125;-81
2021/08/22 10:44:32;;;;;;;;;;;;;;;19.77;90.92;100984.78;4986024;28;20046;-85
2021/08/22 10:47:07;;;;;;;21.95;18.08;;;;;;;19.69;91.24;100986.94;5001049;28;20140;-84
2021/08/22 10:49:51;;;;;;;20.98;16.35;;;;;;;19.76;90.75;100987.72;4986550;28;20582;-84
2021/08/22 10:52:36;;;;;;;20.23;16.83;;;;;;;19.75;91.25;100984.16;4985493;28;20101;-82
2021/08/22 10:55:11;;;;;;;19.23;16.42;;;;;;;19.77;93.24;100986.69;5000886;28;20049;-85
2021/08/22 10:57:42;;;;;;;18.27;15.55;;;;;;;19.72;91.81;100978.34;4987877;28;20133;-85
2021/08/22 11:00:30;;;;;;;19.83;17.02;;;;;;;19.78;92.17;100985.63;4999480;28;20503;-85
2021/08/22 11:03:02;;;;;;;18.58;15.73;;;;;;;19.72;92.31;100975.63;4982215;28;20101;-81
2021/08/22 11:05:36;;;;;;;19.05;15.18;;;;;;;19.75;92.19;100988.78;4981750;28;20053;-85
2021/08/22 11:08:20;;;;;;;15.23;13.38;;;;;;;19.74;91.13;100990.69;5014919;28;20073;-85
2021/08/22 11:11:05;;;;;;;17.20;13.57;;;;;;;19.72;91.80;100997.41;4979592;28;20120;-83
2021/08/22 11:13:31;;;;;;;16.98;13.75;;;;;;;19.78;92.40;100991.91;4985060;28;20522;-82
2021/08/22 11:16:05;;;;;;;15.32;11.98;;;;;;;19.77;91.68;100986.69;4987464;28;20046;-87
2021/08/22 11:18:46;;;;;;;14.48;13.00;;;;;;;19.94;93.15;100979.66;4984018;28;20070;-84